Hillsboro, North Dakota
Current Conditions -  °F | °C
As of 11:53 AM on Tuesday 21 Oct 2014 (Local Time) from KFAR Reporting Station
Clear Clear  
Wind Chill: 59°   Ceiling: Unl
Heat Index: 59°   Visibility: 10mi
Dew Point: 42°   Wind: 28mph
Humidity: 53%   Direction: 150°SSE
Pressure: 29.98"   Gusts: 35mph
Location:  47.4°N, 97.06°W
Report Text: KFAR 211653Z 15024G30KT 10SM CLR 15/06 A2998 RMK AO2 PK WND 15030/1653 SLP158 T01500056
Loading
Personal Weather Stations






























Interactive Weather Map
Tropical Storm Tracking
New forecast layout! Learn more

10-Day Weather Forecast

Advertisements
Track Severe Weather on mobile